sensor_id;sensor_type;location;lat;lon;timestamp;P1;durP1;ratioP1;P2;durP2;ratioP2
30380;SDS011;17169;50.966;11.038;2024-02-21T00:01:16;16.38;;;3.17;;
30380;SDS011;17169;50.966;11.038;2024-02-21T00:04:22;15.30;;;3.95;;
30380;SDS011;17169;50.966;11.038;2024-02-21T00:07:24;13.40;;;3.63;;
30380;SDS011;17169;50.966;11.038;2024-02-21T00:10:26;15.52;;;3.63;;
30380;SDS011;17169;50.966;11.038;2024-02-21T00:13:29;15.80;;;4.32;;
30380;SDS011;17169;50.966;11.038;2024-02-21T00:16:31;13.57;;;4.03;;
30380;SDS011;17169;50.966;11.038;2024-02-21T00:19:35;12.88;;;3.33;;
30380;SDS011;17169;50.966;11.038;2024-02-21T00:22:37;9.80;;;2.90;;
30380;SDS011;17169;50.966;11.038;2024-02-21T00:25:40;11.70;;;3.10;;
30380;SDS011;17169;50.966;11.038;2024-02-21T00:28:42;13.70;;;4.00;;
30380;SDS011;17169;50.966;11.038;2024-02-21T00:31:45;17.38;;;3.60;;
30380;SDS011;17169;50.966;11.038;2024-02-21T00:34:48;16.75;;;3.90;;
30380;SDS011;17169;50.966;11.038;2024-02-21T00:37:51;13.32;;;3.28;;
30380;SDS011;17169;50.966;11.038;2024-02-21T00:40:53;13.90;;;3.92;;
30380;SDS011;17169;50.966;11.038;2024-02-21T00:43:56;13.73;;;4.43;;
30380;SDS011;17169;50.966;11.038;2024-02-21T00:46:58;19.05;;;3.17;;
30380;SDS011;17169;50.966;11.038;2024-02-21T00:50:02;12.40;;;3.10;;
30380;SDS011;17169;50.966;11.038;2024-02-21T00:53:05;17.48;;;3.65;;
30380;SDS011;17169;50.966;11.038;2024-02-21T00:56:07;20.33;;;4.00;;
30380;SDS011;17169;50.966;11.038;2024-02-21T00:59:09;17.40;;;3.75;;
30380;SDS011;17169;50.966;11.038;2024-02-21T01:02:12;10.23;;;3.85;;
30380;SDS011;17169;50.966;11.038;2024-02-21T01:05:15;20.60;;;4.88;;
30380;SDS011;17169;50.966;11.038;2024-02-21T01:08:18;13.32;;;3.65;;
30380;SDS011;17169;50.966;11.038;2024-02-21T01:11:20;15.07;;;3.67;;
30380;SDS011;17169;50.966;11.038;2024-02-21T01:14:23;12.43;;;3.53;;
30380;SDS011;17169;50.966;11.038;2024-02-21T01:17:25;9.15;;;3.03;;
30380;SDS011;17169;50.966;11.038;2024-02-21T01:20:29;17.38;;;3.92;;
30380;SDS011;17169;50.966;11.038;2024-02-21T01:23:31;15.77;;;3.85;;
30380;SDS011;17169;50.966;11.038;2024-02-21T01:26:33;13.43;;;3.28;;
30380;SDS011;17169;50.966;11.038;2024-02-21T01:29:36;17.25;;;3.67;;
30380;SDS011;17169;50.966;11.038;2024-02-21T01:32:38;19.52;;;3.47;;
30380;SDS011;17169;50.966;11.038;2024-02-21T01:35:42;8.30;;;2.78;;
30380;SDS011;17169;50.966;11.038;2024-02-21T01:41:47;14.38;;;3.45;;
30380;SDS011;17169;50.966;11.038;2024-02-21T01:44:50;11.82;;;3.80;;
30380;SDS011;17169;50.966;11.038;2024-02-21T01:47:52;11.10;;;3.33;;
30380;SDS011;17169;50.966;11.038;2024-02-21T01:50:56;19.00;;;4.03;;
30380;SDS011;17169;50.966;11.038;2024-02-21T01:53:59;16.50;;;3.92;;
30380;SDS011;17169;50.966;11.038;2024-02-21T01:57:01;11.50;;;3.67;;
30380;SDS011;17169;50.966;11.038;2024-02-21T02:00:04;13.82;;;3.28;;
30380;SDS011;17169;50.966;11.038;2024-02-21T02:03:08;13.13;;;3.60;;
30380;SDS011;17169;50.966;11.038;2024-02-21T02:06:18;12.73;;;3.63;;
30380;SDS011;17169;50.966;11.038;2024-02-21T02:09:20;17.52;;;3.97;;
30380;SDS011;17169;50.966;11.038;2024-02-21T02:12:23;11.38;;;3.22;;
30380;SDS011;17169;50.966;11.038;2024-02-21T02:15:25;17.95;;;4.50;;
30380;SDS011;17169;50.966;11.038;2024-02-21T02:18:28;13.25;;;3.75;;
30380;SDS011;17169;50.966;11.038;2024-02-21T02:21:32;12.43;;;3.55;;
30380;SDS011;17169;50.966;11.038;2024-02-21T02:24:39;8.57;;;3.35;;
30380;SDS011;17169;50.966;11.038;2024-02-21T02:27:41;14.18;;;4.03;;
30380;SDS011;17169;50.966;11.038;2024-02-21T02:30:45;12.68;;;3.20;;
30380;SDS011;17169;50.966;11.038;2024-02-21T02:33:48;14.70;;;4.10;;
30380;SDS011;17169;50.966;11.038;2024-02-21T02:36:50;18.10;;;3.53;;
30380;SDS011;17169;50.966;11.038;2024-02-21T02:39:54;14.90;;;3.50;;
30380;SDS011;17169;50.966;11.038;2024-02-21T02:42:57;9.55;;;3.35;;
30380;SDS011;17169;50.966;11.038;2024-02-21T02:45:59;12.07;;;3.80;;
30380;SDS011;17169;50.966;11.038;2024-02-21T02:49:01;15.93;;;3.90;;
30380;SDS011;17169;50.966;11.038;2024-02-21T02:52:04;12.50;;;3.88;;
30380;SDS011;17169;50.966;11.038;2024-02-21T02:55:08;17.77;;;3.85;;
30380;SDS011;17169;50.966;11.038;2024-02-21T02:58:10;14.15;;;4.47;;
30380;SDS011;17169;50.966;11.038;2024-02-21T03:01:13;14.45;;;3.47;;
30380;SDS011;17169;50.966;11.038;2024-02-21T03:04:15;14.15;;;3.55;;
30380;SDS011;17169;50.966;11.038;2024-02-21T03:07:17;16.02;;;3.65;;
30380;SDS011;17169;50.966;11.038;2024-02-21T03:10:21;10.98;;;3.13;;
30380;SDS011;17169;50.966;11.038;2024-02-21T03:13:23;14.93;;;4.00;;
30380;SDS011;17169;50.966;11.038;2024-02-21T03:16:26;13.95;;;3.90;;
30380;SDS011;17169;50.966;11.038;2024-02-21T03:19:28;13.57;;;4.03;;
30380;SDS011;17169;50.966;11.038;2024-02-21T03:22:31;19.20;;;3.95;;
30380;SDS011;17169;50.966;11.038;2024-02-21T03:25:35;11.45;;;3.70;;
30380;SDS011;17169;50.966;11.038;2024-02-21T03:28:37;14.40;;;4.15;;
30380;SDS011;17169;50.966;11.038;2024-02-21T03:31:40;12.65;;;3.83;;
30380;SDS011;17169;50.966;11.038;2024-02-21T03:34:43;14.70;;;4.10;;
30380;SDS011;17169;50.966;11.038;2024-02-21T03:37:45;10.70;;;3.70;;
30380;SDS011;17169;50.966;11.038;2024-02-21T03:40:49;13.85;;;3.88;;
30380;SDS011;17169;50.966;11.038;2024-02-21T03:43:51;12.07;;;3.42;;
30380;SDS011;17169;50.966;11.038;2024-02-21T03:46:53;13.60;;;4.78;;
30380;SDS011;17169;50.966;11.038;2024-02-21T03:49:56;15.45;;;4.15;;
30380;SDS011;17169;50.966;11.038;2024-02-21T03:53:00;14.60;;;3.85;;
30380;SDS011;17169;50.966;11.038;2024-02-21T03:56:04;13.02;;;4.53;;
30380;SDS011;17169;50.966;11.038;2024-02-21T03:59:06;15.32;;;4.53;;
30380;SDS011;17169;50.966;11.038;2024-02-21T04:02:09;12.30;;;4.18;;
30380;SDS011;17169;50.966;11.038;2024-02-21T04:05:11;13.43;;;3.75;;
30380;SDS011;17169;50.966;11.038;2024-02-21T04:08:17;15.73;;;4.05;;
30380;SDS011;17169;50.966;11.038;2024-02-21T04:11:21;9.23;;;3.70;;
30380;SDS011;17169;50.966;11.038;2024-02-21T04:14:23;13.63;;;4.07;;
30380;SDS011;17169;50.966;11.038;2024-02-21T04:17:25;11.35;;;3.50;;
30380;SDS011;17169;50.966;11.038;2024-02-21T04:20:28;13.10;;;3.55;;
30380;SDS011;17169;50.966;11.038;2024-02-21T04:23:31;12.38;;;3.95;;
30380;SDS011;17169;50.966;11.038;2024-02-21T04:26:34;9.90;;;3.72;;
30380;SDS011;17169;50.966;11.038;2024-02-21T04:29:37;14.57;;;3.38;;
30380;SDS011;17169;50.966;11.038;2024-02-21T04:32:39;12.60;;;3.50;;
30380;SDS011;17169;50.966;11.038;2024-02-21T04:35:42;10.20;;;4.68;;
30380;SDS011;17169;50.966;11.038;2024-02-21T04:38:44;10.77;;;3.38;;
30380;SDS011;17169;50.966;11.038;2024-02-21T04:41:48;11.02;;;3.55;;
30380;SDS011;17169;50.966;11.038;2024-02-21T04:44:51;14.75;;;3.47;;
30380;SDS011;17169;50.966;11.038;2024-02-21T04:47:53;11.38;;;3.83;;
30380;SDS011;17169;50.966;11.038;2024-02-21T04:50:56;8.30;;;3.47;;
30380;SDS011;17169;50.966;11.038;2024-02-21T04:53:58;13.57;;;3.95;;
30380;SDS011;17169;50.966;11.038;2024-02-21T04:57:02;14.38;;;3.50;;
30380;SDS011;17169;50.966;11.038;2024-02-21T05:00:06;9.70;;;3.42;;
30380;SDS011;17169;50.966;11.038;2024-02-21T05:03:09;14.13;;;3.85;;
30380;SDS011;17169;50.966;11.038;2024-02-21T05:06:11;8.93;;;3.40;;
30380;SDS011;17169;50.966;11.038;2024-02-21T05:09:14;18.15;;;4.40;;
30380;SDS011;17169;50.966;11.038;2024-02-21T05:12:18;10.02;;;3.50;;
30380;SDS011;17169;50.966;11.038;2024-02-21T05:15:21;9.60;;;3.10;;
30380;SDS011;17169;50.966;11.038;2024-02-21T05:18:23;14.23;;;3.60;;
30380;SDS011;17169;50.966;11.038;2024-02-21T05:21:25;10.63;;;3.58;;
30380;SDS011;17169;50.966;11.038;2024-02-21T05:24:28;11.32;;;4.00;;
30380;SDS011;17169;50.966;11.038;2024-02-21T05:27:32;12.43;;;4.45;;
30380;SDS011;17169;50.966;11.038;2024-02-21T05:30:36;15.30;;;3.58;;
30380;SDS011;17169;50.966;11.038;2024-02-21T05:33:38;14.90;;;4.32;;
30380;SDS011;17169;50.966;11.038;2024-02-21T05:36:40;14.30;;;3.63;;
30380;SDS011;17169;50.966;11.038;2024-02-21T05:39:43;13.27;;;3.47;;
30380;SDS011;17169;50.966;11.038;2024-02-21T05:42:47;16.70;;;4.35;;
30380;SDS011;17169;50.966;11.038;2024-02-21T05:45:51;15.30;;;4.03;;
30380;SDS011;17169;50.966;11.038;2024-02-21T05:48:54;12.63;;;3.88;;
30380;SDS011;17169;50.966;11.038;2024-02-21T05:51:56;12.70;;;4.97;;
30380;SDS011;17169;50.966;11.038;2024-02-21T05:54:58;11.35;;;4.20;;
30380;SDS011;17169;50.966;11.038;2024-02-21T05:58:02;13.23;;;3.92;;
30380;SDS011;17169;50.966;11.038;2024-02-21T06:01:07;8.90;;;3.63;;
30380;SDS011;17169;50.966;11.038;2024-02-21T06:04:09;11.68;;;3.88;;
30380;SDS011;17169;50.966;11.038;2024-02-21T06:07:11;14.18;;;3.95;;
30380;SDS011;17169;50.966;11.038;2024-02-21T06:10:14;11.48;;;3.90;;
30380;SDS011;17169;50.966;11.038;2024-02-21T06:13:17;12.65;;;4.32;;
30380;SDS011;17169;50.966;11.038;2024-02-21T06:16:21;8.73;;;3.58;;
30380;SDS011;17169;50.966;11.038;2024-02-21T06:19:24;11.45;;;3.95;;
30380;SDS011;17169;50.966;11.038;2024-02-21T06:22:26;11.90;;;3.90;;
30380;SDS011;17169;50.966;11.038;2024-02-21T06:25:28;17.17;;;4.30;;
30380;SDS011;17169;50.966;11.038;2024-02-21T06:28:32;14.35;;;4.25;;
30380;SDS011;17169;50.966;11.038;2024-02-21T06:31:35;12.90;;;3.95;;
30380;SDS011;17169;50.966;11.038;2024-02-21T06:34:37;12.57;;;4.05;;
30380;SDS011;17169;50.966;11.038;2024-02-21T06:37:39;14.68;;;3.85;;
30380;SDS011;17169;50.966;11.038;2024-02-21T06:40:42;10.80;;;4.05;;
30380;SDS011;17169;50.966;11.038;2024-02-21T06:43:50;14.88;;;4.25;;
30380;SDS011;17169;50.966;11.038;2024-02-21T06:46:53;12.05;;;4.50;;
30380;SDS011;17169;50.966;11.038;2024-02-21T06:49:55;13.55;;;3.67;;
30380;SDS011;17169;50.966;11.038;2024-02-21T06:52:58;10.75;;;3.90;;
30380;SDS011;17169;50.966;11.038;2024-02-21T06:56:00;8.63;;;3.67;;
30380;SDS011;17169;50.966;11.038;2024-02-21T06:59:04;11.75;;;3.70;;
30380;SDS011;17169;50.966;11.038;2024-02-21T07:02:06;10.02;;;3.53;;
30380;SDS011;17169;50.966;11.038;2024-02-21T07:05:09;9.25;;;3.63;;
30380;SDS011;17169;50.966;11.038;2024-02-21T07:08:11;12.50;;;4.00;;
30380;SDS011;17169;50.966;11.038;2024-02-21T07:11:13;13.00;;;4.55;;
30380;SDS011;17169;50.966;11.038;2024-02-21T07:14:17;8.68;;;3.53;;
30380;SDS011;17169;50.966;11.038;2024-02-21T07:17:20;13.68;;;4.13;;
30380;SDS011;17169;50.966;11.038;2024-02-21T07:20:22;10.50;;;3.95;;
30380;SDS011;17169;50.966;11.038;2024-02-21T07:23:24;11.55;;;3.30;;
30380;SDS011;17169;50.966;11.038;2024-02-21T07:26:27;9.57;;;3.65;;
30380;SDS011;17169;50.966;11.038;2024-02-21T07:29:31;10.35;;;4.30;;
30380;SDS011;17169;50.966;11.038;2024-02-21T07:32:33;8.07;;;3.50;;
30380;SDS011;17169;50.966;11.038;2024-02-21T07:35:35;12.00;;;4.15;;
30380;SDS011;17169;50.966;11.038;2024-02-21T07:38:38;13.70;;;4.60;;
30380;SDS011;17169;50.966;11.038;2024-02-21T07:41:41;8.68;;;3.20;;
30380;SDS011;17169;50.966;11.038;2024-02-21T07:44:46;12.63;;;3.93;;
30380;SDS011;17169;50.966;11.038;2024-02-21T07:47:49;11.02;;;4.10;;
30380;SDS011;17169;50.966;11.038;2024-02-21T07:50:51;8.18;;;3.78;;
30380;SDS011;17169;50.966;11.038;2024-02-21T07:53:54;10.25;;;4.20;;
30380;SDS011;17169;50.966;11.038;2024-02-21T07:56:56;13.07;;;4.30;;
30380;SDS011;17169;50.966;11.038;2024-02-21T08:00:00;12.80;;;4.30;;
30380;SDS011;17169;50.966;11.038;2024-02-21T08:03:02;9.75;;;3.63;;
30380;SDS011;17169;50.966;11.038;2024-02-21T08:06:05;13.80;;;4.25;;
30380;SDS011;17169;50.966;11.038;2024-02-21T08:09:13;10.85;;;3.85;;
30380;SDS011;17169;50.966;11.038;2024-02-21T08:12:15;11.23;;;4.15;;
30380;SDS011;17169;50.966;11.038;2024-02-21T08:15:19;10.50;;;4.70;;
30380;SDS011;17169;50.966;11.038;2024-02-21T08:18:25;12.35;;;4.20;;
30380;SDS011;17169;50.966;11.038;2024-02-21T08:21:27;9.77;;;4.05;;
30380;SDS011;17169;50.966;11.038;2024-02-21T08:24:29;9.00;;;4.10;;
30380;SDS011;17169;50.966;11.038;2024-02-21T08:27:32;13.80;;;4.63;;
30380;SDS011;17169;50.966;11.038;2024-02-21T08:30:36;11.73;;;4.53;;
30380;SDS011;17169;50.966;11.038;2024-02-21T08:33:38;11.27;;;4.50;;
30380;SDS011;17169;50.966;11.038;2024-02-21T08:36:41;19.55;;;4.97;;
30380;SDS011;17169;50.966;11.038;2024-02-21T08:39:43;9.38;;;4.88;;
30380;SDS011;17169;50.966;11.038;2024-02-21T08:42:45;13.98;;;5.07;;
30380;SDS011;17169;50.966;11.038;2024-02-21T08:45:49;19.45;;;4.40;;
30380;SDS011;17169;50.966;11.038;2024-02-21T08:48:52;9.63;;;4.43;;
30380;SDS011;17169;50.966;11.038;2024-02-21T08:51:55;12.75;;;5.00;;
30380;SDS011;17169;50.966;11.038;2024-02-21T08:54:57;14.18;;;4.75;;
30380;SDS011;17169;50.966;11.038;2024-02-21T08:57:59;14.27;;;4.57;;
30380;SDS011;17169;50.966;11.038;2024-02-21T09:01:06;11.75;;;4.90;;
30380;SDS011;17169;50.966;11.038;2024-02-21T09:04:10;12.02;;;4.43;;
30380;SDS011;17169;50.966;11.038;2024-02-21T09:07:13;16.20;;;5.10;;
30380;SDS011;17169;50.966;11.038;2024-02-21T09:10:15;13.45;;;4.55;;
30380;SDS011;17169;50.966;11.038;2024-02-21T09:13:18;10.18;;;4.15;;
30380;SDS011;17169;50.966;11.038;2024-02-21T09:16:21;12.85;;;3.78;;
30380;SDS011;17169;50.966;11.038;2024-02-21T09:19:24;7.93;;;3.75;;
30380;SDS011;17169;50.966;11.038;2024-02-21T09:22:26;12.43;;;3.80;;
30380;SDS011;17169;50.966;11.038;2024-02-21T09:25:29;7.93;;;3.80;;
30380;SDS011;17169;50.966;11.038;2024-02-21T09:28:32;10.40;;;3.58;;
30380;SDS011;17169;50.966;11.038;2024-02-21T09:31:36;5.57;;;3.03;;
30380;SDS011;17169;50.966;11.038;2024-02-21T09:34:39;8.57;;;2.80;;
30380;SDS011;17169;50.966;11.038;2024-02-21T09:37:41;8.18;;;3.17;;
30380;SDS011;17169;50.966;11.038;2024-02-21T09:40:44;8.82;;;3.30;;
30380;SDS011;17169;50.966;11.038;2024-02-21T09:43:47;5.40;;;3.00;;
30380;SDS011;17169;50.966;11.038;2024-02-21T09:46:57;9.77;;;3.35;;
30380;SDS011;17169;50.966;11.038;2024-02-21T09:50:05;13.40;;;2.97;;
30380;SDS011;17169;50.966;11.038;2024-02-21T09:53:09;8.35;;;3.75;;
30380;SDS011;17169;50.966;11.038;2024-02-21T09:56:13;8.35;;;3.67;;
30380;SDS011;17169;50.966;11.038;2024-02-21T09:59:16;9.93;;;3.17;;
30380;SDS011;17169;50.966;11.038;2024-02-21T10:02:20;9.82;;;3.58;;
30380;SDS011;17169;50.966;11.038;2024-02-21T10:05:22;9.98;;;3.42;;
30380;SDS011;17169;50.966;11.038;2024-02-21T10:08:25;6.95;;;3.25;;
30380;SDS011;17169;50.966;11.038;2024-02-21T10:11:28;6.20;;;3.47;;
30380;SDS011;17169;50.966;11.038;2024-02-21T10:14:31;6.93;;;3.17;;
30380;SDS011;17169;50.966;11.038;2024-02-21T10:17:35;14.25;;;3.65;;
30380;SDS011;17169;50.966;11.038;2024-02-21T10:20:37;6.70;;;3.40;;
30380;SDS011;17169;50.966;11.038;2024-02-21T10:23:41;9.25;;;3.28;;
30380;SDS011;17169;50.966;11.038;2024-02-21T10:26:44;10.40;;;3.60;;
30380;SDS011;17169;50.966;11.038;2024-02-21T10:29:49;9.27;;;3.55;;
30380;SDS011;17169;50.966;11.038;2024-02-21T10:32:53;8.93;;;3.30;;
30380;SDS011;17169;50.966;11.038;2024-02-21T10:36:05;10.23;;;3.30;;
30380;SDS011;17169;50.966;11.038;2024-02-21T10:39:09;8.90;;;3.67;;
30380;SDS011;17169;50.966;11.038;2024-02-21T10:42:11;13.52;;;3.13;;
30380;SDS011;17169;50.966;11.038;2024-02-21T10:45:15;10.85;;;3.40;;
30380;SDS011;17169;50.966;11.038;2024-02-21T10:48:20;9.10;;;3.55;;
30380;SDS011;17169;50.966;11.038;2024-02-21T10:51:30;12.00;;;3.75;;
30380;SDS011;17169;50.966;11.038;2024-02-21T10:54:39;7.10;;;3.10;;
30380;SDS011;17169;50.966;11.038;2024-02-21T10:57:46;11.13;;;2.97;;
30380;SDS011;17169;50.966;11.038;2024-02-21T11:00:49;17.92;;;3.22;;
30380;SDS011;17169;50.966;11.038;2024-02-21T11:03:54;9.73;;;3.53;;
30380;SDS011;17169;50.966;11.038;2024-02-21T11:06:58;9.70;;;3.38;;
30380;SDS011;17169;50.966;11.038;2024-02-21T11:10:03;8.25;;;3.15;;
30380;SDS011;17169;50.966;11.038;2024-02-21T11:16:10;14.10;;;3.25;;
30380;SDS011;17169;50.966;11.038;2024-02-21T11:19:20;9.88;;;2.90;;
30380;SDS011;17169;50.966;11.038;2024-02-21T11:22:24;11.57;;;3.58;;
30380;SDS011;17169;50.966;11.038;2024-02-21T11:25:29;7.10;;;2.70;;
30380;SDS011;17169;50.966;11.038;2024-02-21T11:28:34;6.30;;;2.50;;
30380;SDS011;17169;50.966;11.038;2024-02-21T11:31:40;8.75;;;2.83;;
30380;SDS011;17169;50.966;11.038;2024-02-21T11:34:54;10.90;;;3.30;;
30380;SDS011;17169;50.966;11.038;2024-02-21T11:37:56;7.63;;;2.38;;
30380;SDS011;17169;50.966;11.038;2024-02-21T11:41:09;10.18;;;3.85;;
30380;SDS011;17169;50.966;11.038;2024-02-21T11:44:12;8.63;;;2.90;;
30380;SDS011;17169;50.966;11.038;2024-02-21T11:47:14;10.20;;;3.38;;
30380;SDS011;17169;50.966;11.038;2024-02-21T11:50:19;10.30;;;2.22;;
30380;SDS011;17169;50.966;11.038;2024-02-21T11:53:21;9.52;;;2.47;;
30380;SDS011;17169;50.966;11.038;2024-02-21T11:56:24;8.43;;;2.60;;
30380;SDS011;17169;50.966;11.038;2024-02-21T11:59:26;7.40;;;2.58;;
30380;SDS011;17169;50.966;11.038;2024-02-21T12:02:31;10.57;;;2.58;;
30380;SDS011;17169;50.966;11.038;2024-02-21T12:05:35;10.32;;;2.40;;
30380;SDS011;17169;50.966;11.038;2024-02-21T12:08:41;9.55;;;2.63;;
30380;SDS011;17169;50.966;11.038;2024-02-21T12:11:44;8.55;;;2.30;;
30380;SDS011;17169;50.966;11.038;2024-02-21T12:14:46;6.75;;;2.45;;
30380;SDS011;17169;50.966;11.038;2024-02-21T12:17:55;8.85;;;2.75;;
30380;SDS011;17169;50.966;11.038;2024-02-21T12:20:59;8.63;;;2.25;;
30380;SDS011;17169;50.966;11.038;2024-02-21T12:24:10;6.88;;;2.63;;
30380;SDS011;17169;50.966;11.038;2024-02-21T12:27:13;8.10;;;2.33;;
30380;SDS011;17169;50.966;11.038;2024-02-21T12:30:16;7.88;;;2.05;;
30380;SDS011;17169;50.966;11.038;2024-02-21T12:33:19;6.45;;;2.03;;
30380;SDS011;17169;50.966;11.038;2024-02-21T12:36:23;7.38;;;2.08;;
30380;SDS011;17169;50.966;11.038;2024-02-21T12:39:26;10.95;;;2.30;;
30380;SDS011;17169;50.966;11.038;2024-02-21T12:42:29;10.50;;;3.65;;
30380;SDS011;17169;50.966;11.038;2024-02-21T12:45:31;9.23;;;3.05;;
30380;SDS011;17169;50.966;11.038;2024-02-21T12:48:34;8.90;;;2.33;;
30380;SDS011;17169;50.966;11.038;2024-02-21T12:51:38;6.03;;;2.30;;
30380;SDS011;17169;50.966;11.038;2024-02-21T12:54:42;7.05;;;2.05;;
30380;SDS011;17169;50.966;11.038;2024-02-21T12:57:45;5.18;;;2.08;;
30380;SDS011;17169;50.966;11.038;2024-02-21T13:00:47;5.15;;;2.30;;
30380;SDS011;17169;50.966;11.038;2024-02-21T13:03:49;10.63;;;2.30;;
30380;SDS011;17169;50.966;11.038;2024-02-21T13:06:53;6.93;;;2.42;;
30380;SDS011;17169;50.966;11.038;2024-02-21T13:09:56;9.18;;;2.35;;
30380;SDS011;17169;50.966;11.038;2024-02-21T13:12:58;6.07;;;2.28;;
30380;SDS011;17169;50.966;11.038;2024-02-21T13:16:01;8.52;;;2.97;;
30380;SDS011;17169;50.966;11.038;2024-02-21T13:19:03;9.85;;;2.38;;
30380;SDS011;17169;50.966;11.038;2024-02-21T13:22:07;11.52;;;2.30;;
30380;SDS011;17169;50.966;11.038;2024-02-21T13:25:10;11.05;;;2.33;;
30380;SDS011;17169;50.966;11.038;2024-02-21T13:28:15;7.13;;;1.90;;
30380;SDS011;17169;50.966;11.038;2024-02-21T13:31:18;4.57;;;1.88;;
30380;SDS011;17169;50.966;11.038;2024-02-21T13:34:20;6.30;;;3.08;;
30380;SDS011;17169;50.966;11.038;2024-02-21T13:37:24;7.28;;;1.75;;
30380;SDS011;17169;50.966;11.038;2024-02-21T13:40:27;10.65;;;1.98;;
30380;SDS011;17169;50.966;11.038;2024-02-21T13:43:29;6.07;;;2.08;;
30380;SDS011;17169;50.966;11.038;2024-02-21T13:46:32;10.32;;;2.28;;
30380;SDS011;17169;50.966;11.038;2024-02-21T13:49:34;6.90;;;2.50;;
30380;SDS011;17169;50.966;11.038;2024-02-21T13:52:38;9.35;;;2.00;;
30380;SDS011;17169;50.966;11.038;2024-02-21T13:55:41;10.73;;;2.05;;
30380;SDS011;17169;50.966;11.038;2024-02-21T13:58:44;9.48;;;2.20;;
30380;SDS011;17169;50.966;11.038;2024-02-21T14:01:46;8.02;;;1.80;;
30380;SDS011;17169;50.966;11.038;2024-02-21T14:04:48;7.38;;;1.88;;
30380;SDS011;17169;50.966;11.038;2024-02-21T14:07:52;14.15;;;1.63;;
30380;SDS011;17169;50.966;11.038;2024-02-21T14:10:55;8.98;;;1.92;;
30380;SDS011;17169;50.966;11.038;2024-02-21T14:13:59;11.03;;;2.20;;
30380;SDS011;17169;50.966;11.038;2024-02-21T14:17:02;6.55;;;1.88;;
30380;SDS011;17169;50.966;11.038;2024-02-21T14:20:05;7.15;;;1.95;;
30380;SDS011;17169;50.966;11.038;2024-02-21T14:23:10;7.28;;;1.80;;
30380;SDS011;17169;50.966;11.038;2024-02-21T14:26:13;8.90;;;2.15;;
30380;SDS011;17169;50.966;11.038;2024-02-21T14:29:16;6.95;;;2.03;;
30380;SDS011;17169;50.966;11.038;2024-02-21T14:32:18;6.88;;;2.42;;
30380;SDS011;17169;50.966;11.038;2024-02-21T14:35:21;6.22;;;1.80;;
30380;SDS011;17169;50.966;11.038;2024-02-21T14:38:25;6.40;;;2.50;;
30380;SDS011;17169;50.966;11.038;2024-02-21T14:41:28;10.77;;;2.03;;
30380;SDS011;17169;50.966;11.038;2024-02-21T14:44:30;6.55;;;2.10;;
30380;SDS011;17169;50.966;11.038;2024-02-21T14:47:32;7.03;;;1.92;;
30380;SDS011;17169;50.966;11.038;2024-02-21T14:50:35;10.25;;;2.10;;
30380;SDS011;17169;50.966;11.038;2024-02-21T14:53:38;7.80;;;2.38;;
30380;SDS011;17169;50.966;11.038;2024-02-21T14:56:41;10.48;;;1.65;;
30380;SDS011;17169;50.966;11.038;2024-02-21T14:59:44;7.15;;;1.88;;
30380;SDS011;17169;50.966;11.038;2024-02-21T15:02:46;9.57;;;2.00;;
30380;SDS011;17169;50.966;11.038;2024-02-21T15:05:48;9.07;;;2.25;;
30380;SDS011;17169;50.966;11.038;2024-02-21T15:08:52;5.05;;;1.80;;
30380;SDS011;17169;50.966;11.038;2024-02-21T15:11:54;6.70;;;1.90;;
30380;SDS011;17169;50.966;11.038;2024-02-21T15:14:57;11.40;;;2.10;;
30380;SDS011;17169;50.966;11.038;2024-02-21T15:17:59;5.72;;;2.17;;
30380;SDS011;17169;50.966;11.038;2024-02-21T15:21:03;12.18;;;1.85;;
30380;SDS011;17169;50.966;11.038;2024-02-21T15:24:09;5.22;;;1.73;;
30380;SDS011;17169;50.966;11.038;2024-02-21T15:27:11;6.53;;;1.73;;
30380;SDS011;17169;50.966;11.038;2024-02-21T15:30:14;7.53;;;2.33;;
30380;SDS011;17169;50.966;11.038;2024-02-21T15:33:16;6.68;;;1.77;;
30380;SDS011;17169;50.966;11.038;2024-02-21T15:36:18;7.93;;;2.78;;
30380;SDS011;17169;50.966;11.038;2024-02-21T15:39:22;10.40;;;3.25;;
30380;SDS011;17169;50.966;11.038;2024-02-21T15:42:27;15.25;;;3.45;;
30380;SDS011;17169;50.966;11.038;2024-02-21T15:45:32;13.18;;;3.45;;
30380;SDS011;17169;50.966;11.038;2024-02-21T15:48:34;9.40;;;3.38;;
30380;SDS011;17169;50.966;11.038;2024-02-21T15:51:36;7.75;;;3.45;;
30380;SDS011;17169;50.966;11.038;2024-02-21T15:54:42;6.38;;;2.38;;
30380;SDS011;17169;50.966;11.038;2024-02-21T15:57:45;7.50;;;2.05;;
30380;SDS011;17169;50.966;11.038;2024-02-21T16:00:47;8.32;;;1.90;;
30380;SDS011;17169;50.966;11.038;2024-02-21T16:03:51;7.20;;;1.98;;
30380;SDS011;17169;50.966;11.038;2024-02-21T16:06:56;6.18;;;1.80;;
30380;SDS011;17169;50.966;11.038;2024-02-21T16:13:05;5.03;;;1.90;;
30380;SDS011;17169;50.966;11.038;2024-02-21T16:16:07;6.65;;;2.42;;
30380;SDS011;17169;50.966;11.038;2024-02-21T16:19:10;7.03;;;1.92;;
30380;SDS011;17169;50.966;11.038;2024-02-21T16:22:14;6.72;;;1.85;;
30380;SDS011;17169;50.966;11.038;2024-02-21T16:25:18;7.18;;;1.75;;
30380;SDS011;17169;50.966;11.038;2024-02-21T16:28:20;7.90;;;2.00;;
30380;SDS011;17169;50.966;11.038;2024-02-21T16:31:23;9.50;;;2.55;;
30380;SDS011;17169;50.966;11.038;2024-02-21T16:34:25;8.73;;;2.70;;
30380;SDS011;17169;50.966;11.038;2024-02-21T16:37:27;9.95;;;2.65;;
30380;SDS011;17169;50.966;11.038;2024-02-21T16:40:32;7.30;;;2.28;;
30380;SDS011;17169;50.966;11.038;2024-02-21T16:43:34;5.43;;;1.60;;
30380;SDS011;17169;50.966;11.038;2024-02-21T16:46:37;9.52;;;2.47;;
30380;SDS011;17169;50.966;11.038;2024-02-21T16:49:39;8.52;;;2.83;;
30380;SDS011;17169;50.966;11.038;2024-02-21T16:52:42;8.32;;;2.42;;
30380;SDS011;17169;50.966;11.038;2024-02-21T16:55:46;12.10;;;2.13;;
30380;SDS011;17169;50.966;11.038;2024-02-21T16:58:49;9.77;;;2.70;;
30380;SDS011;17169;50.966;11.038;2024-02-21T17:01:51;11.38;;;2.65;;
30380;SDS011;17169;50.966;11.038;2024-02-21T17:04:55;7.78;;;1.98;;
30380;SDS011;17169;50.966;11.038;2024-02-21T17:07:59;9.48;;;2.05;;
30380;SDS011;17169;50.966;11.038;2024-02-21T17:11:02;8.60;;;2.22;;
30380;SDS011;17169;50.966;11.038;2024-02-21T17:14:05;8.00;;;2.83;;
30380;SDS011;17169;50.966;11.038;2024-02-21T17:17:08;8.85;;;2.17;;
30380;SDS011;17169;50.966;11.038;2024-02-21T17:20:10;6.47;;;2.17;;
30380;SDS011;17169;50.966;11.038;2024-02-21T17:23:14;9.75;;;2.33;;
30380;SDS011;17169;50.966;11.038;2024-02-21T17:26:17;8.48;;;2.08;;
30380;SDS011;17169;50.966;11.038;2024-02-21T17:29:21;11.50;;;2.20;;
30380;SDS011;17169;50.966;11.038;2024-02-21T17:32:24;8.25;;;2.33;;
30380;SDS011;17169;50.966;11.038;2024-02-21T17:35:27;11.10;;;2.45;;
30380;SDS011;17169;50.966;11.038;2024-02-21T17:38:29;6.25;;;2.13;;
30380;SDS011;17169;50.966;11.038;2024-02-21T17:41:33;8.77;;;2.25;;
30380;SDS011;17169;50.966;11.038;2024-02-21T17:44:35;9.75;;;2.35;;
30380;SDS011;17169;50.966;11.038;2024-02-21T17:47:39;7.80;;;2.20;;
30380;SDS011;17169;50.966;11.038;2024-02-21T17:50:41;5.72;;;1.95;;
30380;SDS011;17169;50.966;11.038;2024-02-21T17:53:43;11.00;;;2.08;;
30380;SDS011;17169;50.966;11.038;2024-02-21T17:56:47;9.45;;;2.28;;
30380;SDS011;17169;50.966;11.038;2024-02-21T17:59:50;13.77;;;2.60;;
30380;SDS011;17169;50.966;11.038;2024-02-21T18:02:54;8.23;;;2.38;;
30380;SDS011;17169;50.966;11.038;2024-02-21T18:05:59;9.10;;;2.45;;